AGJ920 MHTG-MGGT
Flight info
| Callsign | AGJ920 |
|---|---|
| Flight time | 0h 54m |
| Altitude | 300 |
| Route | LIBIS1 TAGIR YSV KAPAN |
| Aircraft | A318/M-SDE3FG/L |
Departure
| Time | 2026-04-30 10:10 |
|---|---|
| Airport | Toncontín Airport (MHTG) |
Arrival
| Time | 2026-04-30 11:04 |
|---|---|
| Airport | La Aurora International Airport (MGGT) |
| Time | Latitude | Longitude | Altitude | Speed | Heading |
|---|---|---|---|---|---|
| 2026-04-30 09:53 | 14.06063 | -87.21881 | 3290 ft | 0 kts | 289° |
| 2026-04-30 10:03 | 14.06063 | -87.21880 | 3336 ft | 2 kts | 289° |
| 2026-04-30 10:03 | 14.06058 | -87.21864 | 3338 ft | 2 kts | 289° |
| 2026-04-30 10:03 | 14.06052 | -87.21848 | 3338 ft | 2 kts | 289° |
| 2026-04-30 10:04 | 14.06048 | -87.21832 | 3289 ft | 2 kts | 269° |
| 2026-04-30 10:04 | 14.06056 | -87.21820 | 3315 ft | 0 kts | 201° |
| 2026-04-30 10:05 | 14.06013 | -87.21835 | 3311 ft | 12 kts | 199° |
| 2026-04-30 10:06 | 14.05927 | -87.21866 | 3290 ft | 15 kts | 199° |
| 2026-04-30 10:06 | 14.05826 | -87.21901 | 3290 ft | 15 kts | 198° |
| 2026-04-30 10:06 | 14.05729 | -87.21934 | 3290 ft | 14 kts | 199° |
| 2026-04-30 10:06 | 14.05646 | -87.21964 | 3290 ft | 11 kts | 199° |
| 2026-04-30 10:07 | 14.05574 | -87.21989 | 3291 ft | 10 kts | 199° |
| 2026-04-30 10:07 | 14.05509 | -87.22011 | 3291 ft | 9 kts | 198° |
| 2026-04-30 10:07 | 14.05449 | -87.22032 | 3291 ft | 9 kts | 199° |
| 2026-04-30 10:07 | 14.05384 | -87.22049 | 3290 ft | 11 kts | 192° |
| 2026-04-30 10:08 | 14.05318 | -87.22037 | 3291 ft | 10 kts | 126° |
| 2026-04-30 10:08 | 14.05252 | -87.22004 | 3291 ft | 12 kts | 168° |
| 2026-04-30 10:08 | 14.05178 | -87.22011 | 3290 ft | 4 kts | 231° |
| 2026-04-30 10:08 | 14.05179 | -87.22023 | 3290 ft | 2 kts | 304° |
| 2026-04-30 10:09 | 14.05214 | -87.22028 | 3291 ft | 10 kts | 15° |
| 2026-04-30 10:09 | 14.05483 | -87.21934 | 3293 ft | 74 kts | 18° |
| 2026-04-30 10:09 | 14.06178 | -87.21691 | 3290 ft | 136 kts | 18° |
| 2026-04-30 10:09 | 14.07226 | -87.21314 | 3588 ft | 163 kts | 20° |
| 2026-04-30 10:10 | 14.08206 | -87.21035 | 4640 ft | 144 kts | 2° |
| 2026-04-30 10:10 | 14.09252 | -87.21068 | 5018 ft | 164 kts | 359° |
| 2026-04-30 10:10 | 14.10507 | -87.21049 | 5299 ft | 192 kts | 4° |
| 2026-04-30 10:10 | 14.11928 | -87.20947 | 5545 ft | 220 kts | 5° |
| 2026-04-30 10:11 | 14.13581 | -87.20912 | 5789 ft | 254 kts | 358° |
| 2026-04-30 10:11 | 14.15456 | -87.20974 | 6292 ft | 277 kts | 0° |
| 2026-04-30 10:11 | 14.17359 | -87.20974 | 7311 ft | 275 kts | 1° |
| 2026-04-30 10:11 | 14.19304 | -87.20871 | 8160 ft | 282 kts | 7° |
| 2026-04-30 10:12 | 14.21259 | -87.20644 | 9019 ft | 287 kts | 7° |
| 2026-04-30 10:12 | 14.23275 | -87.20430 | 9899 ft | 292 kts | 7° |
| 2026-04-30 10:12 | 14.25321 | -87.20211 | 10659 ft | 297 kts | 7° |
| 2026-04-30 10:12 | 14.27414 | -87.19966 | 11159 ft | 313 kts | 8° |
| 2026-04-30 10:13 | 14.29654 | -87.19679 | 11493 ft | 334 kts | 8° |
| 2026-04-30 10:13 | 14.31980 | -87.19118 | 11781 ft | 352 kts | 26° |
| 2026-04-30 10:13 | 14.33973 | -87.17617 | 12235 ft | 360 kts | 49° |
| 2026-04-30 10:13 | 14.35279 | -87.15479 | 13125 ft | 357 kts | 66° |
| 2026-04-30 10:14 | 14.36234 | -87.13069 | 13800 ft | 363 kts | 70° |
| 2026-04-30 10:14 | 14.37106 | -87.10632 | 14437 ft | 366 kts | 70° |
| 2026-04-30 10:14 | 14.38787 | -87.05608 | 15694 ft | 373 kts | 81° |
| 2026-04-30 10:15 | 14.38763 | -87.02951 | 16327 ft | 378 kts | 97° |
| 2026-04-30 10:15 | 14.37906 | -87.00355 | 16894 ft | 387 kts | 116° |
| 2026-04-30 10:15 | 14.36249 | -86.98142 | 17444 ft | 397 kts | 135° |
| 2026-04-30 10:15 | 14.34112 | -86.96298 | 17953 ft | 404 kts | 139° |
| 2026-04-30 10:16 | 14.31879 | -86.94511 | 18440 ft | 409 kts | 140° |
| 2026-04-30 10:16 | 14.29633 | -86.92709 | 18930 ft | 411 kts | 139° |
| 2026-04-30 10:16 | 14.27389 | -86.90851 | 19446 ft | 412 kts | 138° |
| 2026-04-30 10:17 | 14.22882 | -86.87160 | 20356 ft | 420 kts | 142° |
| 2026-04-30 10:17 | 14.17275 | -86.85395 | 21277 ft | 435 kts | 179° |
| 2026-04-30 10:17 | 14.14249 | -86.85909 | 21719 ft | 441 kts | 198° |
| 2026-04-30 10:18 | 14.11534 | -86.87342 | 22142 ft | 445 kts | 214° |
| 2026-04-30 10:18 | 14.09019 | -86.89262 | 22537 ft | 449 kts | 217° |
| 2026-04-30 10:18 | 14.06555 | -86.91262 | 22980 ft | 451 kts | 218° |
| 2026-04-30 10:19 | 14.01551 | -86.95200 | 23740 ft | 458 kts | 216° |
| 2026-04-30 10:19 | 13.98974 | -86.97190 | 24094 ft | 459 kts | 217° |
| 2026-04-30 10:19 | 13.96452 | -86.99183 | 24467 ft | 461 kts | 217° |
| 2026-04-30 10:19 | 13.94739 | -87.00542 | 24693 ft | 462 kts | 217° |
| 2026-04-30 10:20 | 13.92205 | -87.02530 | 25049 ft | 463 kts | 217° |
| 2026-04-30 10:20 | 13.87017 | -87.06575 | 25763 ft | 466 kts | 217° |
| 2026-04-30 10:20 | 13.84469 | -87.08578 | 26083 ft | 467 kts | 217° |
| 2026-04-30 10:21 | 13.81861 | -87.10623 | 26404 ft | 468 kts | 217° |
| 2026-04-30 10:21 | 13.79260 | -87.12654 | 26749 ft | 469 kts | 217° |
| 2026-04-30 10:21 | 13.76662 | -87.14684 | 27049 ft | 471 kts | 217° |
| 2026-04-30 10:21 | 13.74066 | -87.16717 | 27355 ft | 472 kts | 217° |
| 2026-04-30 10:22 | 13.71432 | -87.18778 | 27656 ft | 473 kts | 217° |
| 2026-04-30 10:22 | 13.68866 | -87.20879 | 27896 ft | 475 kts | 224° |
| 2026-04-30 10:22 | 13.66843 | -87.23537 | 28223 ft | 473 kts | 241° |
| 2026-04-30 10:22 | 13.65616 | -87.26648 | 28493 ft | 472 kts | 257° |
| 2026-04-30 10:23 | 13.65270 | -87.29983 | 28743 ft | 472 kts | 273° |
| 2026-04-30 10:23 | 13.65828 | -87.33295 | 28991 ft | 471 kts | 289° |
| 2026-04-30 10:23 | 13.67230 | -87.36327 | 29218 ft | 470 kts | 302° |
| 2026-04-30 10:23 | 13.68965 | -87.39194 | 29471 ft | 471 kts | 304° |
| 2026-04-30 10:24 | 13.70755 | -87.42032 | 29853 ft | 470 kts | 304° |
| 2026-04-30 10:24 | 13.72507 | -87.44851 | 30013 ft | 474 kts | 303° |
| 2026-04-30 10:24 | 13.76000 | -87.50638 | 29989 ft | 475 kts | 303° |
| 2026-04-30 10:25 | 13.79554 | -87.56402 | 29972 ft | 476 kts | 304° |
| 2026-04-30 10:25 | 13.83069 | -87.62182 | 29984 ft | 477 kts | 304° |
| 2026-04-30 10:26 | 13.86607 | -87.67961 | 29978 ft | 477 kts | 304° |
| 2026-04-30 10:26 | 13.90133 | -87.73747 | 29971 ft | 478 kts | 304° |
| 2026-04-30 10:27 | 13.91642 | -87.76774 | 29975 ft | 482 kts | 291° |
| 2026-04-30 10:27 | 13.92362 | -87.80181 | 29969 ft | 487 kts | 276° |
| 2026-04-30 10:27 | 13.92214 | -87.83635 | 29982 ft | 492 kts | 263° |
| 2026-04-30 10:27 | 13.91620 | -87.87151 | 29952 ft | 493 kts | 261° |
| 2026-04-30 10:28 | 13.90326 | -87.94058 | 29955 ft | 494 kts | 261° |
| 2026-04-30 10:28 | 13.89119 | -88.01056 | 29936 ft | 494 kts | 262° |
| 2026-04-30 10:29 | 13.87859 | -88.07998 | 29930 ft | 495 kts | 261° |
| 2026-04-30 10:29 | 13.86630 | -88.14954 | 29923 ft | 495 kts | 262° |
| 2026-04-30 10:30 | 13.85373 | -88.21947 | 29933 ft | 496 kts | 262° |
| 2026-04-30 10:30 | 13.84128 | -88.28907 | 29912 ft | 495 kts | 262° |
| 2026-04-30 10:31 | 13.82878 | -88.35872 | 29903 ft | 496 kts | 261° |
| 2026-04-30 10:31 | 13.81621 | -88.42855 | 29899 ft | 497 kts | 262° |
| 2026-04-30 10:32 | 13.80357 | -88.49883 | 29892 ft | 498 kts | 262° |
| 2026-04-30 10:32 | 13.79092 | -88.56892 | 29889 ft | 499 kts | 262° |
| 2026-04-30 10:33 | 13.77829 | -88.63885 | 29885 ft | 499 kts | 262° |
| 2026-04-30 10:33 | 13.76552 | -88.70938 | 29871 ft | 500 kts | 262° |
| 2026-04-30 10:34 | 13.75278 | -88.77968 | 29862 ft | 500 kts | 262° |
| 2026-04-30 10:34 | 13.74007 | -88.84960 | 29857 ft | 500 kts | 262° |
| 2026-04-30 10:35 | 13.72728 | -88.92001 | 29848 ft | 501 kts | 262° |
| 2026-04-30 10:35 | 13.71444 | -88.99039 | 29843 ft | 501 kts | 262° |
| 2026-04-30 10:36 | 13.70152 | -89.06127 | 29845 ft | 501 kts | 262° |
| 2026-04-30 10:36 | 13.69729 | -89.09674 | 29837 ft | 497 kts | 274° |
| 2026-04-30 10:36 | 13.70161 | -89.13145 | 29860 ft | 491 kts | 288° |
| 2026-04-30 10:37 | 13.71382 | -89.16396 | 29857 ft | 486 kts | 299° |
| 2026-04-30 10:37 | 13.72881 | -89.19513 | 29860 ft | 485 kts | 301° |
| 2026-04-30 10:37 | 13.75913 | -89.25679 | 29894 ft | 486 kts | 300° |
| 2026-04-30 10:38 | 13.78903 | -89.31939 | 29900 ft | 486 kts | 300° |
| 2026-04-30 10:38 | 13.81912 | -89.38131 | 29898 ft | 486 kts | 300° |
| 2026-04-30 10:39 | 13.84913 | -89.44382 | 29922 ft | 487 kts | 300° |
| 2026-04-30 10:39 | 13.87929 | -89.50627 | 29928 ft | 488 kts | 300° |
| 2026-04-30 10:40 | 13.90928 | -89.56865 | 29940 ft | 488 kts | 300° |
| 2026-04-30 10:40 | 13.93944 | -89.63134 | 29948 ft | 489 kts | 300° |
| 2026-04-30 10:41 | 13.96959 | -89.69406 | 29964 ft | 489 kts | 300° |
| 2026-04-30 10:41 | 13.99984 | -89.75708 | 29950 ft | 489 kts | 300° |
| 2026-04-30 10:42 | 14.02931 | -89.81857 | 29052 ft | 472 kts | 300° |
| 2026-04-30 10:42 | 14.04389 | -89.84918 | 27868 ft | 472 kts | 298° |
| 2026-04-30 10:42 | 14.05245 | -89.88196 | 26744 ft | 481 kts | 278° |
| 2026-04-30 10:43 | 14.04992 | -89.91631 | 25654 ft | 486 kts | 258° |
| 2026-04-30 10:43 | 14.03645 | -89.94804 | 24654 ft | 488 kts | 236° |
| 2026-04-30 10:43 | 14.01323 | -89.97286 | 24093 ft | 475 kts | 215° |
| 2026-04-30 10:43 | 13.98443 | -89.98758 | 23582 ft | 458 kts | 194° |
| 2026-04-30 10:44 | 13.95354 | -89.99102 | 22987 ft | 438 kts | 172° |
| 2026-04-30 10:44 | 13.92488 | -89.98308 | 22400 ft | 415 kts | 149° |
| 2026-04-30 10:44 | 13.90278 | -89.96577 | 21835 ft | 393 kts | 126° |
| 2026-04-30 10:44 | 13.88836 | -89.94275 | 21264 ft | 376 kts | 112° |
| 2026-04-30 10:45 | 13.87751 | -89.91849 | 20693 ft | 369 kts | 111° |
| 2026-04-30 10:45 | 13.86551 | -89.89527 | 20126 ft | 365 kts | 115° |
| 2026-04-30 10:45 | 13.85278 | -89.87301 | 19562 ft | 360 kts | 116° |
| 2026-04-30 10:45 | 13.83988 | -89.85100 | 19020 ft | 355 kts | 117° |
| 2026-04-30 10:46 | 13.82710 | -89.82930 | 18484 ft | 351 kts | 117° |
| 2026-04-30 10:46 | 13.81459 | -89.80801 | 17907 ft | 347 kts | 117° |
| 2026-04-30 10:46 | 13.80216 | -89.78672 | 17296 ft | 343 kts | 115° |
| 2026-04-30 10:46 | 13.79501 | -89.76423 | 16743 ft | 327 kts | 89° |
| 2026-04-30 10:47 | 13.79889 | -89.74201 | 16204 ft | 314 kts | 62° |
| 2026-04-30 10:47 | 13.81258 | -89.72523 | 15699 ft | 306 kts | 36° |
| 2026-04-30 10:47 | 13.83102 | -89.71459 | 15159 ft | 304 kts | 25° |
| 2026-04-30 10:47 | 13.85038 | -89.70614 | 14699 ft | 299 kts | 23° |
| 2026-04-30 10:48 | 13.86960 | -89.69844 | 14245 ft | 294 kts | 22° |
| 2026-04-30 10:48 | 13.88866 | -89.69094 | 13795 ft | 290 kts | 22° |
| 2026-04-30 10:48 | 13.90720 | -89.68356 | 13308 ft | 287 kts | 22° |
| 2026-04-30 10:48 | 13.92586 | -89.67605 | 12802 ft | 285 kts | 22° |
| 2026-04-30 10:49 | 13.94413 | -89.66868 | 12313 ft | 283 kts | 21° |
| 2026-04-30 10:49 | 13.96350 | -89.66594 | 11854 ft | 282 kts | 352° |
| 2026-04-30 10:49 | 13.98193 | -89.67270 | 11413 ft | 283 kts | 328° |
| 2026-04-30 10:49 | 13.99477 | -89.68753 | 11048 ft | 282 kts | 295° |
| 2026-04-30 10:50 | 14.00035 | -89.70659 | 11029 ft | 283 kts | 283° |
| 2026-04-30 10:50 | 14.00427 | -89.72747 | 11030 ft | 308 kts | 282° |
| 2026-04-30 10:50 | 14.00807 | -89.74980 | 11041 ft | 328 kts | 281° |
| 2026-04-30 10:50 | 14.01213 | -89.77416 | 11043 ft | 363 kts | 281° |
| 2026-04-30 10:51 | 14.01732 | -89.80102 | 11038 ft | 394 kts | 287° |
| 2026-04-30 10:51 | 14.02708 | -89.82708 | 11037 ft | 377 kts | 296° |
| 2026-04-30 10:51 | 14.03849 | -89.85001 | 11037 ft | 358 kts | 300° |
| 2026-04-30 10:51 | 14.05059 | -89.87210 | 11032 ft | 345 kts | 301° |
| 2026-04-30 10:52 | 14.06260 | -89.89353 | 11012 ft | 343 kts | 302° |
| 2026-04-30 10:52 | 14.07436 | -89.91432 | 10999 ft | 335 kts | 302° |
| 2026-04-30 10:52 | 14.08627 | -89.93522 | 10999 ft | 341 kts | 302° |
| 2026-04-30 10:52 | 14.09811 | -89.95648 | 11003 ft | 337 kts | 301° |
| 2026-04-30 10:53 | 14.10922 | -89.97789 | 11008 ft | 339 kts | 299° |
| 2026-04-30 10:53 | 14.11995 | -89.99912 | 11014 ft | 339 kts | 299° |
| 2026-04-30 10:53 | 14.13090 | -90.02089 | 11015 ft | 338 kts | 299° |
| 2026-04-30 10:53 | 14.14183 | -90.04212 | 11016 ft | 338 kts | 301° |
| 2026-04-30 10:54 | 14.15415 | -90.06286 | 11025 ft | 338 kts | 305° |
| 2026-04-30 10:54 | 14.16763 | -90.08279 | 11026 ft | 337 kts | 309° |
| 2026-04-30 10:54 | 14.18228 | -90.10174 | 11031 ft | 336 kts | 311° |
| 2026-04-30 10:54 | 14.19719 | -90.12023 | 11032 ft | 337 kts | 311° |
| 2026-04-30 10:55 | 14.21217 | -90.13878 | 11034 ft | 333 kts | 311° |
| 2026-04-30 10:55 | 14.22673 | -90.15658 | 11048 ft | 321 kts | 312° |
| 2026-04-30 10:55 | 14.24111 | -90.17411 | 11045 ft | 314 kts | 312° |
| 2026-04-30 10:55 | 14.25466 | -90.19068 | 11054 ft | 292 kts | 312° |
| 2026-04-30 10:56 | 14.26746 | -90.20666 | 11058 ft | 288 kts | 308° |
| 2026-04-30 10:56 | 14.27772 | -90.22420 | 10965 ft | 283 kts | 299° |
| 2026-04-30 10:56 | 14.28633 | -90.24215 | 10810 ft | 282 kts | 297° |
| 2026-04-30 10:56 | 14.29478 | -90.26048 | 10574 ft | 280 kts | 297° |
| 2026-04-30 10:57 | 14.30306 | -90.27854 | 10349 ft | 278 kts | 297° |
| 2026-04-30 10:57 | 14.31128 | -90.29642 | 10116 ft | 276 kts | 297° |
| 2026-04-30 10:57 | 14.31975 | -90.31425 | 9927 ft | 276 kts | 299° |
| 2026-04-30 10:57 | 14.32889 | -90.33159 | 9669 ft | 276 kts | 301° |
| 2026-04-30 10:58 | 14.33518 | -90.34313 | 9506 ft | 275 kts | 301° |
| 2026-04-30 10:58 | 14.34464 | -90.36025 | 9264 ft | 274 kts | 303° |
| 2026-04-30 10:58 | 14.35518 | -90.37674 | 9021 ft | 273 kts | 307° |
| 2026-04-30 10:58 | 14.36640 | -90.39266 | 8776 ft | 273 kts | 308° |
| 2026-04-30 10:59 | 14.37749 | -90.40819 | 8636 ft | 271 kts | 308° |
| 2026-04-30 10:59 | 14.38883 | -90.42409 | 8507 ft | 275 kts | 308° |
| 2026-04-30 10:59 | 14.40020 | -90.44005 | 8294 ft | 275 kts | 308° |
| 2026-04-30 10:59 | 14.41159 | -90.45596 | 8042 ft | 274 kts | 308° |
| 2026-04-30 11:00 | 14.42285 | -90.47172 | 7745 ft | 274 kts | 308° |
| 2026-04-30 11:00 | 14.43392 | -90.48721 | 7413 ft | 267 kts | 308° |
| 2026-04-30 11:00 | 14.44491 | -90.50252 | 7112 ft | 259 kts | 308° |
| 2026-04-30 11:00 | 14.45528 | -90.51693 | 7032 ft | 242 kts | 308° |
| 2026-04-30 11:01 | 14.46485 | -90.53013 | 6889 ft | 214 kts | 308° |
| 2026-04-30 11:01 | 14.47397 | -90.54142 | 6556 ft | 197 kts | 324° |
| 2026-04-30 11:01 | 14.48622 | -90.54579 | 6325 ft | 179 kts | 353° |
| 2026-04-30 11:01 | 14.49774 | -90.54747 | 6306 ft | 166 kts | 353° |
| 2026-04-30 11:02 | 14.50898 | -90.54940 | 6263 ft | 156 kts | 353° |
| 2026-04-30 11:02 | 14.51955 | -90.54766 | 5938 ft | 150 kts | 18° |
| 2026-04-30 11:02 | 14.52953 | -90.54464 | 5738 ft | 152 kts | 15° |
| 2026-04-30 11:02 | 14.53942 | -90.54163 | 5551 ft | 150 kts | 15° |
| 2026-04-30 11:03 | 14.54915 | -90.53844 | 5353 ft | 144 kts | 16° |
| 2026-04-30 11:03 | 14.55879 | -90.53536 | 5161 ft | 150 kts | 16° |
| 2026-04-30 11:03 | 14.56866 | -90.53218 | 4949 ft | 140 kts | 16° |
| 2026-04-30 11:04 | 14.58299 | -90.52756 | 4926 ft | 60 kts | 19° |
| 2026-04-30 11:04 | 14.58534 | -90.52676 | 4927 ft | 25 kts | 16° |
| 2026-04-30 11:04 | 14.58670 | -90.52637 | 4930 ft | 16 kts | 14° |
| 2026-04-30 11:04 | 14.58753 | -90.52633 | 4932 ft | 8 kts | 330° |
| 2026-04-30 11:05 | 14.58773 | -90.52666 | 4933 ft | 4 kts | 290° |
| 2026-04-30 11:05 | 14.58782 | -90.52699 | 4933 ft | 7 kts | 285° |
| 2026-04-30 11:05 | 14.58796 | -90.52765 | 4933 ft | 12 kts | 265° |
| 2026-04-30 11:05 | 14.58728 | -90.52835 | 4931 ft | 16 kts | 199° |
| 2026-04-30 11:06 | 14.58691 | -90.52867 | 4930 ft | 4 kts | 261° |
| 2026-04-30 11:06 | 14.58698 | -90.52910 | 4929 ft | 8 kts | 290° |
| 2026-04-30 11:06 | 14.58715 | -90.52955 | 4930 ft | 5 kts | 290° |
| 2026-04-30 11:06 | 14.58719 | -90.52968 | 4929 ft | 0 kts | 290° |